createdAt,value
2023-02-23T16:36:19.913Z,0.50
2023-02-23T16:40:19.484Z,0.34
2023-02-23T16:44:19.386Z,0.39
2023-02-23T16:48:19.341Z,0.51
2023-02-23T16:52:19.222Z,0.50
2023-02-23T16:56:19.179Z,0.50
2023-02-23T17:00:19.022Z,0.50
2023-02-23T17:04:18.988Z,0.51
2023-02-23T17:08:18.972Z,0.52
2023-02-23T17:12:18.852Z,0.51
2023-02-23T17:16:19.285Z,0.51
2023-02-23T17:20:18.667Z,0.52
2023-02-23T17:24:18.559Z,0.52
2023-02-23T17:28:18.474Z,0.53
2023-02-23T17:32:18.449Z,0.51
2023-02-23T17:36:18.283Z,0.53
2023-02-23T17:40:18.084Z,0.53
2023-02-23T17:44:18.115Z,0.56
2023-02-23T17:48:18.275Z,0.55
2023-02-23T17:52:18.130Z,0.54
2023-02-23T17:56:18.116Z,0.55
2023-02-23T18:00:18.046Z,0.55
2023-02-23T18:04:17.896Z,0.76
2023-02-23T18:08:17.798Z,1.10
2023-02-23T18:12:17.723Z,1.31
2023-02-23T18:16:17.705Z,1.61
2023-02-23T18:20:17.583Z,1.68
2023-02-23T18:24:17.490Z,1.81
2023-02-23T18:28:17.451Z,2.05
2023-02-23T18:32:17.619Z,2.04
2023-02-23T18:36:17.289Z,2.08
2023-02-23T18:40:17.176Z,2.18
2023-02-23T18:44:18.812Z,2.24
2023-02-23T18:48:17.153Z,2.34
2023-02-23T18:52:17.011Z,2.41
2023-02-23T18:56:17.098Z,2.48
2023-02-23T19:00:17.254Z,2.50
2023-02-23T19:04:17.375Z,2.59
2023-02-23T19:08:17.508Z,2.65
2023-02-23T19:12:17.628Z,2.68
2023-02-23T19:16:17.754Z,2.73
2023-02-23T19:20:17.878Z,2.75
2023-02-23T19:24:17.956Z,2.83
2023-02-23T19:28:18.088Z,2.91
2023-02-23T19:32:18.490Z,2.95
2023-02-23T19:36:18.385Z,3.00
2023-02-23T19:40:18.532Z,2.99
2023-02-23T19:44:18.651Z,3.05
2023-02-23T19:48:18.807Z,3.06
2023-02-23T19:52:19.024Z,3.08
2023-02-23T19:56:19.177Z,3.06
2023-02-23T20:00:19.348Z,3.18
2023-02-23T20:04:19.474Z,3.20
2023-02-23T20:08:19.687Z,3.19
2023-02-23T20:12:19.800Z,3.23
2023-02-23T20:16:20.037Z,3.17
2023-02-23T20:20:20.127Z,3.31
2023-02-23T20:24:20.067Z,3.23
2023-02-23T20:28:20.087Z,3.34
2023-02-23T20:32:19.997Z,3.31
2023-02-23T20:36:19.861Z,3.34
2023-02-23T20:40:19.760Z,3.27
2023-02-23T20:44:19.688Z,3.30
2023-02-23T20:48:19.615Z,3.31
2023-02-23T20:52:19.526Z,3.26
2023-02-23T20:56:19.462Z,3.34
2023-02-23T21:00:19.357Z,3.34
2023-02-23T21:04:19.669Z,3.35
2023-02-23T21:08:19.458Z,3.27
2023-02-23T21:12:19.420Z,3.37
2023-02-23T21:16:19.391Z,3.33
2023-02-23T21:20:20.665Z,3.26
2023-02-23T21:24:19.320Z,3.31
2023-02-23T21:28:19.093Z,3.32
2023-02-23T21:32:19.219Z,3.27
2023-02-23T21:36:19.036Z,3.23
2023-02-23T21:40:18.957Z,3.29
2023-02-23T21:44:18.847Z,3.33
2023-02-23T21:48:18.779Z,3.26
2023-02-23T21:52:18.775Z,3.24
2023-02-23T21:56:18.669Z,3.24
2023-02-23T22:00:18.564Z,3.25
2023-02-23T22:04:18.491Z,3.26
2023-02-23T22:08:18.444Z,3.28
2023-02-23T22:12:18.381Z,3.26
2023-02-23T22:16:18.339Z,3.30
2023-02-23T22:20:18.275Z,3.24
2023-02-23T22:24:18.246Z,3.27
2023-02-23T22:28:18.102Z,3.27
2023-02-23T22:32:18.167Z,3.27
2023-02-23T22:36:17.957Z,3.21
2023-02-23T22:40:17.849Z,3.25
2023-02-23T22:44:17.816Z,3.19
2023-02-23T22:48:17.707Z,3.25
2023-02-23T22:52:17.605Z,3.23
2023-02-23T22:56:17.504Z,3.25
2023-02-23T23:00:17.632Z,3.15
2023-02-23T23:04:17.816Z,3.18
2023-02-23T23:08:17.897Z,3.18
2023-02-23T23:12:18.051Z,3.13
2023-02-23T23:16:30.562Z,3.13
2023-02-23T23:20:19.212Z,3.15
2023-02-23T23:24:17.983Z,3.11
2023-02-23T23:28:17.941Z,3.06
2023-02-23T23:32:18.024Z,3.14
2023-02-23T23:36:17.948Z,3.09
2023-02-23T23:40:17.868Z,3.05
2023-02-23T23:44:17.760Z,3.03
2023-02-23T23:48:17.840Z,3.03
2023-02-23T23:52:17.994Z,3.00
2023-02-23T23:56:17.931Z,2.97
